Portada
METAR-TAF:

METAR-TAF

Aeroports :

Yap, Micronèsia

latitud: 09-29N, longitud: 138-05E, altitud: 28 m

Observació

L'informe es va fer fa 25 minuts, a les 10:53 UTC
Vent 5 kt amb direcció variable
Temperatura 27°C
Humitat 89%
Pressió 1010 hPa
Visibilitat: 19.3 km
Escasses núvols a una alçada de 1700 ft
Cel ennuvolat a una alçada de 30000 ft

METAR: PTYA 201053Z VRB05KT 12SM FEW017 BKN300 27/25 A2983 RMK SLP101 T02670253

Hora: 21:18 (11:18 UTC)

Pronòstic

L'informe es va fer fa 5 hores i 47 minuts, a les 05:31 UTC
Pronòstic vàlid del 20 a les 06 UTC al 21 a les 06 UTC
Vent 11 kt del Nord-Est
Visibilitat: 10 km
Escasses núvols a una alçada de 1600 ft

TAF: PTYA 200531Z 2006/2106 05011KT P6SM FEW016

Observacions i pronòstics meteorològics de més de 4000 aeroports (METAR i TAF).

Les estacions disponibles són els punts grocs i vermells al mapa.

Posi el ratolí al punt desitjat per veure el nom de l'estació.

Feu clic per veure les observacions i els pronòstics meteorològics.

Per canviar el mapa: feu clic els botons verds amb una creu de color negre per apropar; al botó verd amb un guió per allunyar la imatge; o en les fletxes verdes per a mapes adjacents.


METAR-TAF: